Time;durP1;ratioP1;P1;durP2;ratioP2;P2;SDS_P1;SDS_P2;PMS_P1;PMS_P2;Temp;Humidity;BMP_temperature;BMP_pressure;BME280_temperature;BME280_humidity;BME280_pressure;Samples;Min_cycle;Max_cycle;Signal;HPM_P1;HPM_P2
2021/06/13 00:01:29;;;;;;;6.93;3.92;;;18.10;99.90;;;;;;4352301;32;20096;-78
2021/06/13 00:03:56;;;;;;;5.05;3.78;;;18.10;99.90;;;;;;4376708;32;20509;-76
2021/06/13 00:06:22;;;;;;;5.07;4.05;;;18.10;99.90;;;;;;4352347;32;20521;-75
2021/06/13 00:08:48;;;;;;;5.22;3.67;;;18.10;99.90;;;;;;4329924;32;20501;-76
2021/06/13 00:11:15;;;;;;;4.53;3.92;;;18.20;99.90;;;;;;4341199;32;20133;-77
2021/06/13 00:13:41;;;;;;;6.97;4.00;;;18.30;99.90;;;;;;4362272;32;20073;-77
2021/06/13 00:16:08;;;;;;;4.37;3.50;;;18.20;99.90;;;;;;4326440;32;20078;-76
2021/06/13 00:18:34;;;;;;;5.53;3.72;;;18.30;99.90;;;;;;4351295;32;20096;-77
2021/06/13 00:21:00;;;;;;;6.00;4.07;;;18.20;99.90;;;;;;4363559;32;20094;-77
2021/06/13 00:23:27;;;;;;;6.32;3.70;;;18.20;99.90;;;;;;4338764;32;20075;-78
2021/06/13 00:25:53;;;;;;;5.22;3.95;;;18.10;99.90;;;;;;4351118;32;20234;-77
2021/06/13 00:28:19;;;;;;;5.20;4.37;;;18.10;99.90;;;;;;4350609;32;20066;-77
2021/06/13 00:30:45;;;;;;;5.53;3.80;;;18.10;99.90;;;;;;4325557;32;20071;-77
2021/06/13 00:33:12;;;;;;;5.68;3.80;;;18.00;99.90;;;;;;4349838;32;20069;-75
2021/06/13 00:35:38;;;;;;;4.00;3.30;;;18.10;99.90;;;;;;4338591;32;20520;-78
2021/06/13 00:38:06;;;;;;;6.87;3.55;;;18.10;99.90;;;;;;4352518;32;20102;-78
2021/06/13 00:40:32;;;;;;;4.90;3.60;;;18.00;99.90;;;;;;4351729;32;20085;-77
2021/06/13 00:42:58;;;;;;;6.18;3.55;;;18.00;99.90;;;;;;4363804;32;20063;-79
2021/06/13 00:45:26;;;;;;;5.20;3.62;;;18.00;99.90;;;;;;4338871;32;20499;-77
2021/06/13 00:47:52;;;;;;;8.98;4.00;;;18.00;99.90;;;;;;4364074;32;20063;-78
2021/06/13 00:50:38;;;;;;;5.65;3.62;;;17.90;99.90;;;;;;4376203;32;20077;-78
2021/06/13 00:53:05;;;;;;;;;;;17.90;99.90;;;;;;4352571;32;20078;-77
2021/06/13 00:55:31;;;;;;;;;;;18.00;99.90;;;;;;4364775;32;19976;-77
2021/06/13 00:57:58;;;;;;;4.35;3.40;;;18.00;99.90;;;;;;4363634;32;19981;-79
2021/06/13 01:00:24;;;;;;;4.53;3.60;;;17.90;99.90;;;;;;4351369;32;20086;-76
2021/06/13 01:02:50;;;;;;;4.87;3.50;;;18.00;99.90;;;;;;4376240;32;20173;-78
2021/06/13 01:05:17;;;;;;;5.25;3.72;;;18.00;99.90;;;;;;4350587;32;20078;-79
2021/06/13 01:07:57;;;;;;;3.85;3.22;;;18.00;99.90;;;;;;4375557;32;20464;-77
2021/06/13 01:10:56;;;;;;;4.80;3.67;;;18.00;99.90;;;;;;4376040;32;20074;-77
2021/06/13 01:14:12;;;;;;;4.60;3.33;;;18.00;99.90;;;;;;4376312;32;20123;-78
2021/06/13 01:17:15;;;;;;;4.20;3.55;;;18.00;99.90;;;;;;4377303;32;20081;-77
2021/06/13 01:20:13;;;;;;;4.82;3.40;;;18.00;99.90;;;;;;4375690;32;20063;-77
2021/06/13 01:23:24;;;;;;;5.10;3.20;;;18.10;99.90;;;;;;4364029;32;20509;-79
2021/06/13 01:26:15;;;;;;;3.40;2.97;;;18.10;99.90;;;;;;4351756;32;20504;-78
2021/06/13 01:29:09;;;;;;;3.72;2.95;;;18.20;99.90;;;;;;4363080;32;20066;-78
2021/06/13 01:31:55;;;;;;;3.65;3.00;;;18.30;99.90;;;;;;4374759;32;20163;-75
2021/06/13 01:34:35;;;;;;;4.35;3.08;;;18.30;99.90;;;;;;4326896;32;20097;-76
2021/06/13 01:37:05;;;;;;;3.90;2.75;;;18.40;99.90;;;;;;4367075;32;20170;-76
2021/06/13 01:39:31;;;;;;;6.25;2.90;;;18.50;99.90;;;;;;4337350;32;20227;-77
2021/06/13 01:41:59;;;;;;;3.90;2.92;;;18.60;99.90;;;;;;4350213;32;20074;-75
2021/06/13 01:44:25;;;;;;;3.95;2.70;;;18.60;99.90;;;;;;4339176;32;20102;-75
2021/06/13 01:46:51;;;;;;;5.12;2.85;;;18.60;99.90;;;;;;4348748;32;20093;-79
2021/06/13 01:49:18;;;;;;;4.90;2.75;;;18.70;99.90;;;;;;4336209;32;20162;-78
2021/06/13 01:51:46;;;;;;;3.53;2.90;;;18.80;99.90;;;;;;4336276;32;20078;-78
2021/06/13 01:54:12;;;;;;;5.18;2.45;;;18.80;99.90;;;;;;4324098;32;20087;-76
2021/06/13 01:56:43;;;;;;;4.12;2.60;;;18.90;99.90;;;;;;4335898;32;20449;-77
2021/06/13 01:59:10;;;;;;;3.95;2.80;;;18.90;99.90;;;;;;4338825;32;20099;-75
2021/06/13 02:01:36;;;;;;;4.25;2.78;;;18.90;99.90;;;;;;4347946;32;20074;-80
2021/06/13 02:06:48;;;;;;;3.42;2.37;;;18.90;99.90;;;;;;3857418;37;20070;-80
2021/06/13 02:09:15;;;;;;;3.65;2.55;;;19.00;99.90;;;;;;4394195;32;20065;-78
2021/06/13 02:11:42;;;;;;;3.20;2.55;;;19.00;99.90;;;;;;4393207;32;20062;-79
2021/06/13 02:14:09;;;;;;;3.65;2.58;;;19.10;99.90;;;;;;4405803;32;20441;-77
2021/06/13 02:16:39;;;;;;;3.05;2.60;;;19.10;99.90;;;;;;4381232;32;20100;-79
2021/06/13 02:19:05;;;;;;;3.03;2.53;;;19.10;99.90;;;;;;4393805;32;20093;-77
2021/06/13 02:21:31;;;;;;;3.05;2.55;;;19.10;99.90;;;;;;4393178;32;20167;-78
2021/06/13 02:23:57;;;;;;;4.47;2.75;;;19.20;99.90;;;;;;4393012;32;20101;-78
2021/06/13 02:26:24;;;;;;;3.17;2.40;;;19.10;99.90;;;;;;4405782;32;20513;-78
2021/06/13 02:28:55;;;;;;;3.70;2.83;;;19.10;99.90;;;;;;4380683;32;20142;-76
2021/06/13 02:31:29;;;;;;;4.03;2.50;;;19.10;99.90;;;;;;4393350;32;20522;-79
2021/06/13 02:33:55;;;;;;;3.17;2.30;;;19.20;99.90;;;;;;4393503;32;20198;-78
2021/06/13 02:36:23;;;;;;;4.45;2.80;;;19.20;99.90;;;;;;4393276;32;20072;-78
2021/06/13 02:38:54;;;;;;;2.62;2.35;;;19.30;99.90;;;;;;4381008;32;20065;-79
2021/06/13 02:41:21;;;;;;;3.55;2.50;;;19.40;99.90;;;;;;4394460;32;20454;-79
2021/06/13 02:43:48;;;;;;;3.03;2.58;;;19.40;99.90;;;;;;4418355;32;20076;-80
2021/06/13 02:46:15;;;;;;;5.47;2.70;;;19.50;99.90;;;;;;4393151;32;20159;-79
2021/06/13 02:48:41;;;;;;;3.78;2.65;;;19.60;99.90;;;;;;4405385;32;20202;-79
2021/06/13 02:51:07;;;;;;;3.65;2.80;;;19.60;99.90;;;;;;4392906;32;20115;-77
2021/06/13 02:53:43;;;;;;;4.07;2.85;;;19.70;99.90;;;;;;4390240;32;20081;-77
2021/06/13 02:56:18;;;;;;;4.60;2.50;;;19.80;99.90;;;;;;4391069;32;20155;-76
2021/06/13 02:58:55;;;;;;;3.55;2.42;;;19.90;99.90;;;;;;4365624;32;20105;-79
2021/06/13 03:01:21;;;;;;;4.07;2.83;;;20.00;99.90;;;;;;4390691;32;20143;-80
2021/06/13 03:03:48;;;;;;;4.00;2.40;;;20.00;99.90;;;;;;4377864;32;20069;-79
2021/06/13 03:06:19;;;;;;;3.90;2.62;;;20.00;99.90;;;;;;4402230;32;20073;-79
2021/06/13 03:08:47;;;;;;;3.83;2.50;;;20.10;99.90;;;;;;4402894;32;20073;-80
2021/06/13 03:11:14;;;;;;;2.70;2.30;;;20.10;99.90;;;;;;4390107;32;20094;-79
2021/06/13 03:13:41;;;;;;;3.10;2.30;;;20.20;99.90;;;;;;4389897;32;20070;-79
2021/06/13 03:16:07;;;;;;;3.17;2.40;;;20.10;99.90;;;;;;4375772;32;20173;-79
2021/06/13 03:18:34;;;;;;;2.33;2.12;;;20.20;99.90;;;;;;4379637;32;20527;-79
2021/06/13 03:21:00;;;;;;;3.53;2.50;;;20.20;99.90;;;;;;4392230;32;20080;-78
2021/06/13 03:23:30;;;;;;;3.90;2.58;;;20.30;99.90;;;;;;4380316;32;20089;-79
2021/06/13 03:26:00;;;;;;;2.97;2.45;;;20.40;99.90;;;;;;4379989;32;20085;-79
2021/06/13 03:28:27;;;;;;;3.40;2.50;;;20.50;99.90;;;;;;4367955;32;20078;-77
2021/06/13 03:30:53;;;;;;;3.80;2.47;;;20.60;99.90;;;;;;4368425;32;20089;-79
2021/06/13 03:33:19;;;;;;;2.42;2.22;;;20.70;99.90;;;;;;4380618;32;20069;-79
2021/06/13 03:35:46;;;;;;;4.32;2.08;;;20.70;99.90;;;;;;4378374;32;20097;-80
2021/06/13 03:38:13;;;;;;;2.70;2.30;;;20.80;99.90;;;;;;4377110;32;20078;-79
2021/06/13 03:40:39;;;;;;;2.42;2.22;;;20.80;99.90;;;;;;4352406;32;20141;-79
2021/06/13 03:43:05;;;;;;;2.97;2.50;;;20.90;99.90;;;;;;4376908;32;20185;-79
2021/06/13 03:45:31;;;;;;;3.30;2.42;;;21.00;99.90;;;;;;4352227;32;20440;-79
2021/06/13 03:47:59;;;;;;;3.30;2.45;;;21.00;99.90;;;;;;4364759;32;20086;-81
2021/06/13 03:50:25;;;;;;;2.72;2.40;;;21.10;99.90;;;;;;4340191;32;20243;-80
2021/06/13 03:52:51;;;;;;;4.70;2.40;;;21.10;99.90;;;;;;4364530;32;20247;-80
2021/06/13 03:55:17;;;;;;;2.58;2.37;;;21.20;99.90;;;;;;4352011;32;20194;-80
2021/06/13 03:57:47;;;;;;;4.22;2.30;;;21.20;99.90;;;;;;4364008;32;20092;-81
2021/06/13 04:00:15;;;;;;;3.53;2.25;;;21.30;99.90;;;;;;4365096;32;20067;-81
2021/06/13 04:02:46;;;;;;;2.90;2.45;;;21.40;99.90;;;;;;4339658;32;20167;-81
2021/06/13 04:05:14;;;;;;;2.33;2.10;;;21.40;99.90;;;;;;4364188;32;20103;-80
2021/06/13 04:07:41;;;;;;;3.17;2.40;;;21.50;99.90;;;;;;4364277;32;20101;-81
2021/06/13 04:10:08;;;;;;;2.45;2.20;;;21.60;99.90;;;;;;4364185;32;20067;-80
2021/06/13 04:12:35;;;;;;;2.37;2.17;;;21.70;99.90;;;;;;4364048;32;20077;-79
2021/06/13 04:15:01;;;;;;;4.65;2.08;;;21.70;99.90;;;;;;4364449;32;20085;-80
2021/06/13 04:17:27;;;;;;;2.83;2.20;;;21.70;99.90;;;;;;4376876;32;20150;-80
2021/06/13 04:19:54;;;;;;;2.40;2.20;;;21.70;99.90;;;;;;4364120;32;20089;-80
2021/06/13 04:22:21;;;;;;;2.40;2.20;;;21.80;99.90;;;;;;4351735;32;20081;-81
2021/06/13 04:24:50;;;;;;;2.80;2.10;;;21.90;99.90;;;;;;4363967;32;20133;-81
2021/06/13 04:27:22;;;;;;;3.75;2.20;;;21.90;99.90;;;;;;4364304;32;20063;-80
2021/06/13 04:29:48;;;;;;;5.62;2.20;;;23.30;99.90;;;;;;4363233;32;20069;-79
2021/06/13 04:32:15;;;;;;;5.40;2.50;;;24.90;99.90;;;;;;4363618;32;20452;-81
2021/06/13 04:34:41;;;;;;;2.87;2.50;;;25.70;99.90;;;;;;4364318;32;20090;-79
2021/06/13 04:37:08;;;;;;;4.28;2.10;;;25.80;99.90;;;;;;4386168;32;20092;-79
2021/06/13 04:39:35;;;;;;;3.15;2.20;;;26.10;99.90;;;;;;4366580;32;20141;-79
2021/06/13 04:42:03;;;;;;;3.30;2.47;;;27.20;99.90;;;;;;4366246;32;20074;-75
2021/06/13 04:44:29;;;;;;;5.37;2.10;;;27.40;99.90;;;;;;4366562;32;20496;-77
2021/06/13 04:46:55;;;;;;;3.28;2.33;;;27.00;99.90;;;;;;4391213;32;20101;-80
2021/06/13 04:49:21;;;;;;;3.72;2.25;;;25.90;99.90;;;;;;4391376;32;20086;-82
2021/06/13 04:51:53;;;;;;;3.10;2.50;;;25.80;99.90;;;;;;4378342;32;20148;-81
2021/06/13 04:55:08;;;;;;;3.67;2.40;;;25.50;99.90;;;;;;4378739;32;20424;-81
2021/06/13 04:58:03;;;;;;;2.53;2.30;;;26.00;99.90;;;;;;4368022;32;20082;-81
2021/06/13 05:00:29;;;;;;;2.75;2.45;;;25.80;99.90;;;;;;4377489;32;20441;-81
2021/06/13 05:02:55;;;;;;;2.97;2.58;;;26.70;99.90;;;;;;4375968;32;20166;-80
2021/06/13 05:05:21;;;;;;;3.47;2.33;;;27.60;97.00;;;;;;4363076;32;20089;-80
2021/06/13 05:07:47;;;;;;;3.47;2.28;;;27.10;96.30;;;;;;4363100;32;20445;-82
2021/06/13 05:10:14;;;;;;;4.70;2.20;;;25.70;99.90;;;;;;4363468;32;20177;-80
2021/06/13 05:12:51;;;;;;;3.17;2.55;;;25.40;99.90;;;;;;4363044;32;20063;-81
2021/06/13 05:15:19;;;;;;;3.75;2.25;;;26.50;99.90;;;;;;4376058;32;20128;-81
2021/06/13 05:17:45;;;;;;;4.07;2.53;;;26.70;99.60;;;;;;4351692;32;20581;-78
2021/06/13 05:20:12;;;;;;;3.12;2.20;;;26.60;96.90;;;;;;4364709;32;20142;-81
2021/06/13 05:23:01;;;;;;;3.95;2.50;;;27.10;97.10;;;;;;4363025;32;20090;-81
2021/06/13 05:25:33;;;;;;;4.43;2.40;;;27.00;96.10;;;;;;4338790;32;20070;-79
2021/06/13 05:28:00;;;;;;;4.05;2.47;;;27.30;94.60;;;;;;4376266;32;20452;-80
2021/06/13 05:30:28;;;;;;;3.33;2.22;;;27.40;93.60;;;;;;4350784;32;20535;-80
2021/06/13 05:32:54;;;;;;;4.10;2.50;;;26.80;93.40;;;;;;4363238;32;20089;-80
2021/06/13 05:35:21;;;;;;;2.80;2.50;;;26.70;94.00;;;;;;4363359;32;20508;-80
2021/06/13 05:37:48;;;;;;;2.92;2.55;;;27.90;91.40;;;;;;4361342;32;20559;-79
2021/06/13 05:40:14;;;;;;;4.12;2.60;;;26.50;92.10;;;;;;4362702;32;20074;-80
2021/06/13 05:42:41;;;;;;;2.97;2.40;;;27.80;91.10;;;;;;4350936;32;20058;-81
2021/06/13 05:45:09;;;;;;;4.57;2.70;;;28.00;83.60;;;;;;4350490;32;20155;-77
2021/06/13 05:47:35;;;;;;;4.47;2.37;;;27.50;90.50;;;;;;4375740;32;20085;-78
2021/06/13 05:50:03;;;;;;;2.80;2.50;;;28.20;88.00;;;;;;4350303;32;20157;-77
2021/06/13 05:52:29;;;;;;;4.22;2.60;;;27.00;91.20;;;;;;4363741;32;20522;-77
2021/06/13 05:54:57;;;;;;;2.80;2.55;;;27.20;91.40;;;;;;4363362;32;20516;-81
2021/06/13 05:57:30;;;;;;;3.78;2.75;;;27.60;87.50;;;;;;4366379;32;20078;-77
2021/06/13 06:00:01;;;;;;;4.15;2.85;;;27.80;90.20;;;;;;4352344;32;20157;-81
2021/06/13 06:02:27;;;;;;;5.32;2.78;;;27.50;91.40;;;;;;4363163;32;20182;-77
2021/06/13 06:04:53;;;;;;;5.03;2.70;;;27.50;92.60;;;;;;4375564;32;20175;-81
2021/06/13 06:07:20;;;;;;;3.70;2.67;;;28.40;87.60;;;;;;4363753;32;20139;-81
2021/06/13 06:09:46;;;;;;;4.75;2.83;;;28.20;86.00;;;;;;4362826;32;20131;-80
2021/06/13 06:12:12;;;;;;;3.45;2.92;;;28.30;84.30;;;;;;4362468;32;20059;-79
2021/06/13 06:14:43;;;;;;;4.00;2.90;;;27.50;85.40;;;;;;4362563;32;20085;-81
2021/06/13 06:17:09;;;;;;;3.55;2.85;;;28.10;83.10;;;;;;4375360;32;20162;-79
2021/06/13 06:19:35;;;;;;;6.00;2.70;;;28.50;81.60;;;;;;4375181;32;20170;-81
2021/06/13 06:22:03;;;;;;;3.22;2.72;;;28.60;80.20;;;;;;4362960;32;20074;-81
2021/06/13 06:24:29;;;;;;;4.28;2.90;;;28.60;78.80;;;;;;4362604;32;20058;-80
2021/06/13 06:26:56;;;;;;;4.82;2.80;;;27.80;80.30;;;;;;4362484;32;20071;-81
2021/06/13 06:29:22;;;;;;;4.10;3.03;;;26.80;90.00;;;;;;4355014;32;20139;-80
2021/06/13 06:31:48;;;;;;;3.15;2.70;;;25.80;94.90;;;;;;4337871;32;20178;-80
2021/06/13 06:34:18;;;;;;;4.72;3.03;;;25.60;97.00;;;;;;4337787;32;20088;-80
2021/06/13 06:36:44;;;;;;;4.55;2.60;;;26.00;95.40;;;;;;4382988;32;20162;-81
2021/06/13 06:39:11;;;;;;;5.85;2.97;;;26.40;94.40;;;;;;4377784;32;20088;-81
2021/06/13 06:41:38;;;;;;;3.90;2.95;;;26.10;95.20;;;;;;4377845;32;20234;-81
2021/06/13 06:44:08;;;;;;;4.70;3.25;;;25.80;97.00;;;;;;4378094;32;20187;-80
2021/06/13 06:46:34;;;;;;;5.30;2.90;;;26.10;96.00;;;;;;4377459;32;20109;-81
2021/06/13 06:49:01;;;;;;;4.78;3.05;;;26.00;97.80;;;;;;4390075;32;20067;-81
2021/06/13 06:51:27;;;;;;;3.08;2.78;;;26.10;96.70;;;;;;4389711;32;20555;-80
2021/06/13 06:53:56;;;;;;;4.18;2.95;;;26.20;96.40;;;;;;4380060;32;20066;-80
2021/06/13 06:56:22;;;;;;;3.35;2.80;;;26.00;96.60;;;;;;4368101;32;20074;-79
2021/06/13 06:58:48;;;;;;;3.30;2.90;;;26.30;96.30;;;;;;4362754;32;20078;-82
2021/06/13 07:01:14;;;;;;;3.45;2.83;;;26.10;97.20;;;;;;4377598;32;20078;-81
2021/06/13 07:03:41;;;;;;;3.80;2.92;;;26.10;98.30;;;;;;4366644;32;20496;-79
2021/06/13 07:06:07;;;;;;;3.92;3.30;;;26.00;98.70;;;;;;4354615;32;20059;-80
2021/06/13 07:08:33;;;;;;;5.50;3.10;;;26.60;95.80;;;;;;4365546;32;20081;-81
2021/06/13 07:10:59;;;;;;;3.95;3.03;;;26.30;96.70;;;;;;4377163;32;20154;-80
2021/06/13 07:13:26;;;;;;;4.28;3.33;;;25.80;97.60;;;;;;4377536;32;20066;-80
2021/06/13 07:15:52;;;;;;;5.15;3.30;;;26.00;98.30;;;;;;4377918;32;20086;-77
2021/06/13 07:18:18;;;;;;;4.65;3.50;;;26.40;96.70;;;;;;4365562;32;20089;-80
2021/06/13 07:20:44;;;;;;;4.25;3.00;;;26.60;96.20;;;;;;4377734;32;20158;-76
2021/06/13 07:23:10;;;;;;;4.22;3.20;;;26.70;95.30;;;;;;4352835;32;20057;-81
2021/06/13 07:25:37;;;;;;;4.22;3.22;;;26.20;95.90;;;;;;4352355;32;20068;-79
2021/06/13 07:28:05;;;;;;;4.10;3.35;;;26.70;96.20;;;;;;4364604;32;20082;-80
2021/06/13 07:30:32;;;;;;;4.30;3.53;;;26.50;92.20;;;;;;4377397;32;20209;-78
2021/06/13 07:32:59;;;;;;;5.00;3.55;;;26.30;95.60;;;;;;4377613;32;20157;-80
2021/06/13 07:35:25;;;;;;;5.07;3.67;;;26.70;92.30;;;;;;4340424;32;20074;-80
2021/06/13 07:37:51;;;;;;;4.50;3.70;;;26.40;90.30;;;;;;4378838;32;20066;-80
2021/06/13 07:40:19;;;;;;;4.35;3.22;;;26.40;92.00;;;;;;4379695;32;20149;-80
2021/06/13 07:42:45;;;;;;;4.60;3.47;;;26.50;92.10;;;;;;4355370;32;20168;-79
2021/06/13 07:45:12;;;;;;;5.37;3.62;;;26.90;91.20;;;;;;4367440;32;20145;-80
2021/06/13 07:47:38;;;;;;;4.20;3.53;;;27.50;85.70;;;;;;4355170;32;20077;-81
2021/06/13 07:50:06;;;;;;;4.55;3.58;;;27.90;82.00;;;;;;4379851;32;20150;-79
2021/06/13 07:52:33;;;;;;;4.35;3.55;;;27.70;84.00;;;;;;4354744;32;20058;-80
2021/06/13 07:54:59;;;;;;;5.03;3.70;;;27.10;87.60;;;;;;4367026;32;20077;-79
2021/06/13 07:57:25;;;;;;;8.63;3.67;;;27.40;86.20;;;;;;4353176;32;20456;-80
2021/06/13 07:59:51;;;;;;;5.68;3.30;;;27.70;85.40;;;;;;4364469;32;20145;-81
2021/06/13 08:02:17;;;;;;;6.12;3.83;;;27.60;86.40;;;;;;4364453;32;20081;-80
2021/06/13 08:04:52;;;;;;;4.50;3.60;;;27.80;82.90;;;;;;4364465;32;20062;-81
2021/06/13 08:07:18;;;;;;;3.40;3.10;;;27.60;83.60;;;;;;4365161;32;20085;-81
2021/06/13 08:09:44;;;;;;;4.95;3.37;;;26.90;89.00;;;;;;4351543;32;20101;-80
2021/06/13 08:12:11;;;;;;;4.40;3.50;;;26.80;89.50;;;;;;4364155;32;20083;-80
2021/06/13 08:14:38;;;;;;;4.05;3.20;;;26.50;91.00;;;;;;4363896;32;20440;-80
2021/06/13 08:17:04;;;;;;;4.85;3.55;;;26.40;90.90;;;;;;4364105;32;20452;-80
2021/06/13 08:19:31;;;;;;;4.62;3.78;;;26.30;92.20;;;;;;4376101;32;20073;-77
2021/06/13 08:21:57;;;;;;;3.67;3.25;;;26.30;91.80;;;;;;4364020;32;20128;-79
2021/06/13 08:24:23;;;;;;;4.10;3.53;;;26.40;91.70;;;;;;4376280;32;20180;-79
2021/06/13 08:26:49;;;;;;;4.82;3.40;;;26.30;92.70;;;;;;4351973;32;20540;-80
2021/06/13 08:29:16;;;;;;;4.82;3.65;;;26.30;93.80;;;;;;4364487;32;20075;-79
2021/06/13 08:31:42;;;;;;;5.37;3.47;;;25.80;94.10;;;;;;4377541;32;20508;-81
2021/06/13 08:34:08;;;;;;;4.28;3.30;;;25.80;94.50;;;;;;4364012;32;20511;-80
2021/06/13 08:36:34;;;;;;;3.65;3.17;;;25.70;94.90;;;;;;4375860;32;20074;-78
2021/06/13 08:39:01;;;;;;;3.62;3.25;;;25.70;97.00;;;;;;4364270;32;20102;-81
2021/06/13 08:41:27;;;;;;;3.65;3.28;;;25.40;98.70;;;;;;4351555;32;20525;-80
2021/06/13 08:43:53;;;;;;;5.28;3.45;;;25.30;99.90;;;;;;4376446;32;20171;-81
2021/06/13 08:46:21;;;;;;;3.70;3.00;;;25.40;99.90;;;;;;4363750;32;20058;-81
2021/06/13 08:48:50;;;;;;;7.55;3.70;;;25.40;99.90;;;;;;4364084;32;20086;-80
2021/06/13 08:51:17;;;;;;;3.55;3.17;;;25.40;99.90;;;;;;4352129;32;20073;-78
2021/06/13 08:53:46;;;;;;;4.05;3.50;;;25.20;99.90;;;;;;4364849;32;20051;-79
2021/06/13 08:56:13;;;;;;;5.40;3.47;;;25.00;99.90;;;;;;4364288;32;20169;-80
2021/06/13 08:58:40;;;;;;;4.03;3.33;;;24.90;99.90;;;;;;4375128;32;20165;-81
2021/06/13 09:01:06;;;;;;;4.47;3.50;;;25.00;99.90;;;;;;4366387;32;20159;-79
2021/06/13 09:03:33;;;;;;;4.78;3.60;;;25.20;99.90;;;;;;4378030;32;20161;-78
2021/06/13 09:05:59;;;;;;;4.75;3.50;;;25.00;99.90;;;;;;4378155;32;20073;-82
2021/06/13 09:08:36;;;;;;;3.75;3.33;;;25.10;99.90;;;;;;4378263;32;20078;-77
2021/06/13 09:11:03;;;;;;;4.50;3.45;;;25.00;99.90;;;;;;4365868;32;20227;-80
2021/06/13 09:13:30;;;;;;;5.90;3.53;;;24.90;99.90;;;;;;4365950;32;20084;-79
2021/06/13 09:16:01;;;;;;;4.60;3.58;;;24.90;99.90;;;;;;4353297;32;20085;-81
2021/06/13 09:18:57;;;;;;;5.00;3.40;;;24.80;99.90;;;;;;4341400;32;20181;-81
2021/06/13 09:21:26;;;;;;;3.95;3.10;;;24.80;99.90;;;;;;4377973;32;20084;-79
2021/06/13 09:23:52;;;;;;;8.43;3.75;;;24.70;99.90;;;;;;4378067;32;20066;-81
2021/06/13 09:26:20;;;;;;;5.95;3.33;;;25.00;99.90;;;;;;4365991;32;20062;-79
2021/06/13 09:28:49;;;;;;;5.03;3.62;;;24.90;99.90;;;;;;4390626;32;20496;-78
2021/06/13 09:31:24;;;;;;;3.47;3.17;;;24.80;99.90;;;;;;4366026;32;20062;-81
2021/06/13 09:33:52;;;;;;;3.85;3.05;;;24.70;99.90;;;;;;4367060;32;20464;-80
2021/06/13 09:36:20;;;;;;;5.50;3.12;;;24.70;99.90;;;;;;4378406;32;20066;-81
2021/06/13 09:38:47;;;;;;;7.20;3.05;;;24.60;99.90;;;;;;4378588;32;20080;-81
2021/06/13 09:41:19;;;;;;;5.28;2.70;;;24.60;92.60;;;;;;4365832;32;20161;-81
2021/06/13 09:44:09;;;;;;;3.50;2.58;;;24.60;83.60;;;;;;4378270;32;20069;-81
2021/06/13 09:46:38;;;;;;;2.60;2.33;;;24.50;72.60;;;;;;4392073;32;20073;-81
2021/06/13 09:49:16;;;;;;;3.55;2.42;;;24.50;71.10;;;;;;4378703;32;20170;-79
2021/06/13 09:51:47;;;;;;;4.47;2.87;;;24.60;71.40;;;;;;4379296;32;20069;-78
2021/06/13 09:54:22;;;;;;;4.40;2.70;;;24.70;73.00;;;;;;4378709;32;20082;-79
2021/06/13 09:56:48;;;;;;;4.87;2.92;;;24.80;79.40;;;;;;4377531;32;20605;-78
2021/06/13 09:59:16;;;;;;;3.40;2.80;;;24.90;79.70;;;;;;4372329;32;20463;-78
2021/06/13 10:01:43;;;;;;;3.72;2.70;;;24.90;84.80;;;;;;4363283;32;20066;-79
2021/06/13 10:04:37;;;;;;;5.07;2.50;;;24.70;87.70;;;;;;4375322;32;20169;-73
2021/06/13 10:07:18;;;;;;;4.22;2.70;;;24.90;89.60;;;;;;4363702;32;20070;-77
2021/06/13 10:09:50;;;;;;;5.82;2.97;;;24.50;99.90;;;;;;4376903;32;20445;-80
2021/06/13 10:12:16;;;;;;;4.78;3.40;;;24.30;99.90;;;;;;4363940;32;20078;-79
2021/06/13 10:14:43;;;;;;;4.25;3.28;;;24.30;99.90;;;;;;4362906;32;20497;-81
2021/06/13 10:17:09;;;;;;;3.65;3.05;;;24.10;99.90;;;;;;4350933;32;20110;-81
2021/06/13 10:19:44;;;;;;;4.93;3.20;;;24.00;99.90;;;;;;4362780;32;20066;-78
2021/06/13 10:22:11;;;;;;;5.62;3.00;;;24.20;99.90;;;;;;4363536;32;20057;-81
2021/06/13 10:24:41;;;;;;;5.85;3.50;;;24.20;99.90;;;;;;4362745;32;20077;-81
2021/06/13 10:27:10;;;;;;;4.20;3.20;;;23.90;99.90;;;;;;4363898;32;20074;-79
2021/06/13 10:29:42;;;;;;;5.53;3.47;;;23.90;99.90;;;;;;4353332;32;20070;-81
2021/06/13 10:32:10;;;;;;;5.78;3.35;;;23.90;99.90;;;;;;4378198;32;20070;-81
2021/06/13 10:34:36;;;;;;;5.87;3.42;;;23.80;99.90;;;;;;4352888;32;20085;-80
2021/06/13 10:37:06;;;;;;;4.80;3.47;;;23.90;99.90;;;;;;4378303;32;20074;-78
2021/06/13 10:39:34;;;;;;;8.40;3.95;;;23.90;99.90;;;;;;4366670;32;20085;-77
2021/06/13 10:42:02;;;;;;;5.65;3.35;;;24.10;99.90;;;;;;4365653;32;20093;-80
2021/06/13 10:44:30;;;;;;;4.68;3.20;;;24.10;99.90;;;;;;4341301;32;20108;-78
2021/06/13 10:47:15;;;;;;;4.35;3.30;;;24.10;99.90;;;;;;4340525;32;20524;-79
2021/06/13 10:49:43;;;;;;;5.50;3.10;;;24.00;99.90;;;;;;4353727;32;20567;-79
2021/06/13 10:52:14;;;;;;;5.00;2.90;;;24.20;99.90;;;;;;4377852;32;20151;-78
2021/06/13 10:54:53;;;;;;;5.37;2.90;;;24.00;99.90;;;;;;4378200;32;20062;-81
2021/06/13 10:57:19;;;;;;;6.12;3.87;;;24.20;99.90;;;;;;4379916;32;20129;-82
2021/06/13 10:59:50;;;;;;;6.18;4.00;;;24.20;99.90;;;;;;4365235;32;20074;-81
2021/06/13 11:02:21;;;;;;;4.12;3.40;;;24.50;99.90;;;;;;4377790;32;20076;-80
2021/06/13 11:05:04;;;;;;;7.05;3.37;;;24.40;99.90;;;;;;4353031;32;20077;-81
2021/06/13 11:07:34;;;;;;;5.57;3.47;;;24.50;99.90;;;;;;4366352;32;20074;-80
2021/06/13 11:10:07;;;;;;;6.70;3.60;;;24.70;99.90;;;;;;4377438;32;20062;-80
2021/06/13 11:12:59;;;;;;;6.43;3.83;;;24.90;99.90;;;;;;4365565;32;20086;-77
2021/06/13 11:15:34;;;;;;;11.55;3.87;;;24.80;99.90;;;;;;4364833;32;20070;-80
2021/06/13 11:18:03;;;;;;;3.75;3.10;;;24.80;99.90;;;;;;4379229;32;20513;-78
2021/06/13 11:22:59;;;;;;;7.15;3.75;;;24.80;99.90;;;;;;4378684;32;20093;-79
2021/06/13 11:25:26;;;;;;;4.72;2.97;;;24.90;99.90;;;;;;4352549;32;20078;-79
2021/06/13 11:28:17;;;;;;;5.12;3.50;;;25.00;99.90;;;;;;4365168;32;20117;-81
2021/06/13 11:31:12;;;;;;;4.50;3.60;;;24.90;99.90;;;;;;4364677;32;20062;-79
2021/06/13 11:33:49;;;;;;;4.18;3.30;;;24.80;99.90;;;;;;4362032;32;20149;-79
2021/06/13 11:36:22;;;;;;;7.15;3.83;;;25.00;99.90;;;;;;4354522;32;20062;-80
2021/06/13 11:39:11;;;;;;;5.55;3.20;;;25.40;99.90;;;;;;4377205;32;20576;-79
2021/06/13 11:41:44;;;;;;;8.50;3.92;;;25.30;99.90;;;;;;4370589;32;20182;-80
2021/06/13 11:44:19;;;;;;;5.85;3.40;;;25.80;99.90;;;;;;4365066;32;20069;-79
2021/06/13 11:46:48;;;;;;;4.70;3.12;;;26.20;99.90;;;;;;4365373;32;20068;-79
2021/06/13 11:49:19;;;;;;;5.70;3.22;;;26.40;97.70;;;;;;4340499;32;20074;-79
2021/06/13 11:52:03;;;;;;;6.85;3.30;;;26.50;95.90;;;;;;4352058;32;20165;-77
2021/06/13 11:54:47;;;;;;;3.45;2.83;;;27.00;94.40;;;;;;4377362;32;20074;-80
2021/06/13 11:57:13;;;;;;;5.87;3.45;;;27.00;91.30;;;;;;4355846;32;20068;-78
2021/06/13 11:59:41;;;;;;;4.35;3.20;;;26.90;92.70;;;;;;4392222;32;20081;-79
2021/06/13 12:02:11;;;;;;;4.47;3.03;;;27.10;90.30;;;;;;4367497;32;20605;-79
2021/06/13 12:04:37;;;;;;;3.20;2.67;;;27.40;86.70;;;;;;4379450;32;20125;-79
2021/06/13 12:07:08;;;;;;;4.35;2.92;;;27.30;91.10;;;;;;4379588;32;20070;-80
2021/06/13 12:09:34;;;;;;;5.80;2.78;;;27.30;92.00;;;;;;4380166;32;20069;-78
2021/06/13 12:12:03;;;;;;;3.97;3.20;;;26.70;90.40;;;;;;4354703;32;20565;-81
2021/06/13 12:14:40;;;;;;;3.50;2.75;;;26.70;92.70;;;;;;4391686;32;20516;-80
2021/06/13 12:17:23;;;;;;;4.80;3.25;;;26.90;93.40;;;;;;4391872;32;20505;-79
2021/06/13 12:19:59;;;;;;;4.70;3.30;;;27.60;91.30;;;;;;4367498;32;20176;-80
2021/06/13 12:27:39;;;;;;;3.60;2.80;;;25.90;94.30;;;;;;4380239;32;20140;-79
2021/06/13 12:30:15;;;;;;;6.43;2.60;;;26.00;92.20;;;;;;4392905;32;20146;-79
2021/06/13 12:32:44;;;;;;;3.10;2.80;;;26.50;90.70;;;;;;4380902;32;20162;-79
2021/06/13 12:35:13;;;;;;;3.08;2.78;;;26.80;85.00;;;;;;4366600;32;20054;-79
2021/06/13 12:37:41;;;;;;;3.40;2.65;;;26.70;86.00;;;;;;4376209;32;20077;-78
2021/06/13 12:40:11;;;;;;;4.40;3.00;;;26.70;86.60;;;;;;4364169;32;20062;-78
2021/06/13 12:42:39;;;;;;;4.25;2.97;;;26.90;86.00;;;;;;4363874;32;20155;-81
2021/06/13 12:45:16;;;;;;;3.53;2.78;;;27.10;88.10;;;;;;4352303;32;20452;-81
2021/06/13 12:47:46;;;;;;;2.95;2.65;;;26.60;90.50;;;;;;4365547;32;20481;-78
2021/06/13 12:50:26;;;;;;;2.78;2.50;;;27.40;88.80;;;;;;4351165;32;20520;-78
2021/06/13 12:52:54;;;;;;;3.15;2.30;;;26.50;91.20;;;;;;4364567;32;20070;-77
2021/06/13 12:55:20;;;;;;;3.90;2.70;;;26.60;90.00;;;;;;4364174;32;20098;-77
2021/06/13 12:57:48;;;;;;;4.03;2.87;;;26.60;89.40;;;;;;4369466;32;20092;-79
2021/06/13 13:00:15;;;;;;;4.05;2.62;;;26.70;92.10;;;;;;4378649;32;20065;-80
2021/06/13 13:02:43;;;;;;;3.12;2.80;;;26.00;91.10;;;;;;4341908;32;20086;-77
2021/06/13 13:05:18;;;;;;;3.10;2.47;;;26.10;92.90;;;;;;4365853;32;20088;-78
2021/06/13 13:07:45;;;;;;;5.40;2.70;;;26.40;90.30;;;;;;4366248;32;20596;-81
2021/06/13 13:10:16;;;;;;;2.97;2.60;;;26.60;91.50;;;;;;4378207;32;20500;-81
2021/06/13 13:12:54;;;;;;;3.95;2.80;;;26.20;92.30;;;;;;4365772;32;20497;-79